ADDS METAR Data INFO
IDs: Format: Raw Decoded Include TAF

Data at: 1604 UTC 25 Apr 2018

KTME 251555Z AUTO 00000KT 10SM CLR 26/19 A3009 RMK AO2
KTME 251535Z AUTO 00000KT 9SM CLR 25/18 A3009 RMK AO2
KTME 251515Z AUTO 00000KT 10SM CLR 25/19 A3009 RMK AO2
KTME 251455Z AUTO 00000KT 10SM CLR 24/19 A3009 RMK AO2
KTME 251435Z AUTO 25003KT 9SM CLR 23/20 A3009 RMK AO2
KTME 251415Z AUTO 00000KT 9SM CLR 22/20 A3009 RMK AO2
KTME 251355Z AUTO 22005KT 9SM CLR 22/20 A3009 RMK AO2
KTME 251335Z AUTO 25003KT 7SM CLR 21/20 A3009 RMK AO2
KTME 251315Z AUTO 00000KT 5SM BR CLR 20/19 A3008 RMK AO2
KTME 251255Z AUTO 00000KT 3SM BR CLR 19/19 A3008 RMK AO2
KTME 251235Z AUTO 00000KT 3SM BR CLR 18/18 A3008 RMK AO2
KTME 251215Z AUTO 00000KT 2 1/2SM BR CLR 17/17 A3006 RMK AO2
KTME 251155Z AUTO 21003KT 1 1/4SM BR CLR 16/16 A3005 RMK AO2
KTME 251135Z AUTO 00000KT 6SM BR CLR 16/16 A3005 RMK AO2
KTME 251115Z AUTO 00000KT 6SM BR CLR 15/15 A3005 RMK AO2
KTME 251055Z AUTO 21003KT 3SM BR CLR 16/16 A3005 RMK AO2
KTME 251035Z AUTO 00000KT 2 1/2SM BR CLR 16/16 A3005 RMK AO2
KTME 251015Z AUTO 00000KT 5SM BR CLR 16/16 A3006 RMK AO2
KTME 250955Z AUTO 00000KT 7SM CLR 16/16 A3006 RMK AO2
KTME 250935Z AUTO 00000KT 5SM BR CLR 16/16 A3006 RMK AO2
KTME 250915Z AUTO 00000KT 4SM BR CLR 16/16 A3006 RMK AO2
KTME 250855Z AUTO 00000KT 4SM BR CLR 16/16 A3006 RMK AO2
KTME 250835Z AUTO 00000KT 6SM BR CLR 16/16 A3006 RMK AO2
KTME 250815Z AUTO 00000KT 7SM CLR 16/16 A3006 RMK AO2
KTME 250755Z AUTO 00000KT 7SM CLR 17/16 A3006 RMK AO2
KTME 250735Z AUTO 00000KT 10SM CLR 17/17 A3006 RMK AO2
KTME 250715Z AUTO 18003KT 9SM CLR 17/17 A3006 RMK AO2
KTME 250655Z AUTO 19003KT 10SM CLR 18/17 A3007 RMK AO2
KTME 250635Z AUTO 00000KT 10SM CLR 18/17 A3007 RMK AO2
KTME 250615Z AUTO 18003KT 10SM CLR 18/17 A3008 RMK AO2
KTME 250555Z AUTO 18003KT 10SM CLR 18/17 A3009 RMK AO2
KTME 250455Z AUTO 19005KT 10SM CLR 19/17 A3008 RMK AO2
KTME 250435Z AUTO 18004KT 10SM CLR 19/17 A3008 RMK AO2
KTME 250415Z AUTO 19006KT 10SM CLR 19/17 A3007 RMK AO2
KTME 250355Z AUTO 19007KT 10SM CLR 20/17 A3006 RMK AO2
KTME 250335Z AUTO 19010KT 10SM CLR 20/17 A3005 RMK AO2
KTME 250315Z AUTO 00000KT 10SM 21/17 A3005 RMK AO2
KTME 250255Z AUTO 00000KT 10SM CLR 22/17 A3004 RMK AO2
KTME 250235Z AUTO 00000KT 10SM CLR 22/17 A3003 RMK AO2
KTME 250215Z AUTO 00000KT 10SM CLR 22/17 A3002 RMK AO2
KTME 250155Z AUTO 00000KT 10SM CLR 22/16 A3001 RMK AO2
KTME 250135Z AUTO 00000KT 10SM CLR 23/17 A3000 RMK AO2
KTME 250115Z AUTO 00000KT 10SM CLR 24/16 A3000 RMK AO2
KTME 250055Z AUTO 04003KT 10SM CLR 24/17 A2999 RMK AO2
KTME 250035Z AUTO 00000KT 10SM CLR 25/17 A2999 RMK AO2
KTME 250015Z AUTO 36003KT 10SM CLR 27/17 A2999 RMK AO2
KTME 242355Z AUTO 01003KT 10SM CLR 28/16 A2999 RMK AO2
KTME 242335Z AUTO 02003KT 10SM CLR 28/16 A2999 RMK AO2
KTME 242315Z AUTO 00000KT 10SM CLR 29/15 A3000 RMK AO2
KTME 242255Z AUTO 36004KT 10SM CLR 28/15 A3000 RMK AO2
KTME 242235Z AUTO 00000KT 10SM CLR 29/15 A3000 RMK AO2
KTME 242215Z AUTO VRB04KT 10SM CLR 29/15 A3000 RMK AO2
KTME 242155Z AUTO 31005KT 10SM CLR 29/14 A3001 RMK AO2
KTME 242135Z AUTO 29006KT 10SM CLR 29/15 A3001 RMK AO2
KTME 242115Z AUTO 33005KT 10SM CLR 29/15 A3002 RMK AO2
KTME 242055Z AUTO VRB04KT 10SM CLR 28/15 A3003 RMK AO2
KTME 242035Z AUTO VRB05KT 10SM CLR 29/15 A3004 RMK AO2
KTME 242015Z AUTO VRB05KT 10SM CLR 28/15 A3004 RMK AO2
KTME 241955Z AUTO 02006KT 10SM CLR 28/14 A3005 RMK AO2
KTME 241935Z AUTO 05003G10KT 10SM CLR 28/15 A3006 RMK AO2
KTME 241815Z AUTO 00000KT 9SM CLR 27/14 A3008 RMK AO2
KTME 241755Z AUTO 06004KT 10SM CLR 27/14 A3009 RMK AO2
KTME 241735Z AUTO VRB05KT 10SM CLR 26/14 A3010 RMK AO2
KTME 241715Z AUTO 35003KT 10SM CLR 26/14 A3010 RMK AO2
KTME 241655Z AUTO VRB04KT 10SM CLR 26/14 A3011 RMK AO2
KTME 241635Z AUTO VRB04KT 10SM CLR 26/13 A3012 RMK AO2
KTME 241615Z AUTO VRB03KT 7SM CLR 25/13 A3012 RMK AO2
KTME 241555Z AUTO 08004KT 3SM HZ CLR 25/13 A3012 RMK AO2
KTME 241535Z AUTO VRB05G12KT 10SM CLR 25/13 A3011 RMK AO2
KTME 241515Z AUTO VRB03KT 10SM CLR 24/14 A3011 RMK AO2
KTME 241455Z AUTO 00000KT 10SM CLR 24/14 A3012 RMK AO2
KTME 241435Z AUTO 00000KT 10SM 24/14 A3011 RMK AO2
KTME 241415Z AUTO 00000KT 10SM 22/15 A3011 RMK AO2
KTME 241355Z AUTO 00000KT 10SM CLR 20/16 A3011 RMK AO2
KTME 241335Z AUTO 00000KT 10SM CLR 19/16 A3010 RMK AO2
KTME 241315Z AUTO 00000KT 9SM CLR 17/16 A3010 RMK AO2
KTME 241255Z AUTO 00000KT 8SM CLR 17/15 A3009 RMK AO2
KTME 241235Z AUTO 00000KT 9SM CLR 15/14 A3008 RMK AO2
KTME 241215Z AUTO 00000KT 9SM CLR 13/13 A3008 RMK AO2
KTME 241155Z AUTO 05004KT 9SM CLR 13/13 A3007 RMK AO2
KTME 241115Z AUTO 04003KT 10SM CLR 13/13 A3006 RMK AO2
KTME 241055Z AUTO 04003KT 10SM CLR 13/13 A3006 RMK AO2
KTME 241035Z AUTO 04003KT 10SM CLR 13/13 A3005 RMK AO2
KTME 241015Z AUTO 05003KT 10SM CLR 13/13 A3005 RMK AO2
KTME 240955Z AUTO 02003KT 10SM CLR 13/13 A3005 RMK AO2
KTME 240935Z AUTO 01004KT 10SM CLR 14/13 A3005 RMK AO2
KTME 240915Z AUTO 01004KT 10SM CLR 14/13 A3005 RMK AO2
KTME 240855Z AUTO 01004KT 10SM CLR 13/13 A3004 RMK AO2
KTME 240835Z AUTO 02005KT 10SM CLR 13/13 A3005 RMK AO2
KTME 240815Z AUTO 03005KT 10SM CLR 13/12 A3005 RMK AO2
KTME 240755Z AUTO 00000KT 10SM CLR 14/13 A3005 RMK AO2
KTME 240735Z AUTO 00000KT 10SM CLR 15/13 A3006 RMK AO2
KTME 240715Z AUTO 25003KT 10SM CLR 16/13 A3006 RMK AO2
KTME 240655Z AUTO 22004KT 10SM CLR 16/14 A3006 RMK AO2
KTME 240635Z AUTO 05003KT 10SM CLR 14/13 A3006 RMK AO2
KTME 240615Z AUTO 00000KT 10SM CLR 15/13 A3006 RMK AO2
KTME 240555Z AUTO 00000KT 10SM CLR 16/13 A3006 RMK AO2
KTME 240535Z AUTO 00000KT 10SM CLR 16/13 A3006 RMK AO2
KTME 240515Z AUTO 00000KT 10SM CLR 17/13 A3005 RMK AO2
KTME 240455Z AUTO 00000KT 10SM CLR 17/13 A3005 RMK AO2
KTME 240435Z AUTO 19003KT 10SM CLR 16/14 A3005 RMK AO2
KTME 240415Z AUTO 00000KT 10SM CLR 17/14 A3005 RMK AO2